Time;durP1;ratioP1;P1;durP2;ratioP2;P2;SDS_P1;SDS_P2;PMS_P1;PMS_P2;Temp;Humidity;BMP_temperature;BMP_pressure;BME280_temperature;BME280_humidity;BME280_pressure;Samples;Min_cycle;Max_cycle;Signal;HPM_P1;HPM_P2
2021/12/07 00:00:54;;;;;;;60.15;25.80;;;2.50;99.90;;;;;;5033157;28;20070;-55
2021/12/07 00:03:20;;;;;;;55.67;25.23;;;2.50;99.90;;;;;;5033376;28;20113;-55
2021/12/07 00:05:47;;;;;;;52.47;24.48;;;2.50;99.90;;;;;;5033039;28;20025;-56
2021/12/07 00:08:13;;;;;;;54.92;23.95;;;2.50;99.90;;;;;;5033700;28;20103;-56
2021/12/07 00:10:41;;;;;;;62.90;25.73;;;2.50;99.90;;;;;;5033560;28;20120;-56
2021/12/07 00:13:07;;;;;;;51.80;24.55;;;2.50;99.90;;;;;;5034151;28;20017;-54
2021/12/07 00:15:33;;;;;;;58.53;25.55;;;2.50;99.90;;;;;;5035069;28;20087;-56
2021/12/07 00:17:59;;;;;;;55.35;25.17;;;2.50;99.90;;;;;;5035334;28;20030;-52
2021/12/07 00:20:25;;;;;;;53.85;24.33;;;2.50;99.90;;;;;;5035011;28;20032;-55
2021/12/07 00:22:55;;;;;;;58.47;24.58;;;2.50;99.90;;;;;;5035009;28;20108;-56
2021/12/07 00:25:21;;;;;;;60.20;24.55;;;2.40;99.90;;;;;;5035233;28;20018;-55
2021/12/07 00:27:46;;;;;;;57.58;25.67;;;2.40;99.90;;;;;;5035287;28;20021;-57
2021/12/07 00:30:14;;;;;;;56.35;24.80;;;2.40;99.90;;;;;;5035001;28;20489;-52
2021/12/07 00:32:46;;;;;;;57.08;24.70;;;2.50;99.90;;;;;;5034879;28;20103;-55
2021/12/07 00:37:57;;;;;;;60.53;26.60;;;2.40;99.90;;;;;;5034960;28;20552;-56
2021/12/07 00:40:24;;;;;;;54.13;24.02;;;2.50;99.90;;;;;;5034814;28;20041;-57
2021/12/07 00:42:51;;;;;;;52.72;24.10;;;2.40;99.90;;;;;;5034505;28;20021;-57
2021/12/07 00:45:21;;;;;;;58.03;24.15;;;2.40;99.90;;;;;;5034357;28;20034;-52
2021/12/07 00:47:48;;;;;;;56.78;25.83;;;2.40;99.90;;;;;;5034696;28;20037;-56
2021/12/07 00:50:15;;;;;;;64.95;25.35;;;2.40;99.90;;;;;;5034790;28;20437;-55
2021/12/07 00:52:41;;;;;;;56.00;23.88;;;2.30;99.90;;;;;;5034558;28;20068;-56
2021/12/07 00:55:13;;;;;;;54.58;23.95;;;2.30;99.90;;;;;;5034322;28;20057;-56
2021/12/07 00:57:40;;;;;;;62.63;25.05;;;2.30;99.90;;;;;;5034380;28;20025;-56
2021/12/07 01:00:11;;;;;;;55.58;24.05;;;2.30;99.90;;;;;;5034380;28;20104;-54
2021/12/07 01:02:37;;;;;;;59.45;25.33;;;2.30;99.90;;;;;;5034418;28;20030;-51
2021/12/07 01:05:11;;;;;;;64.55;24.50;;;2.30;99.90;;;;;;5034416;28;20441;-55
2021/12/07 01:26:41;;;;;;;55.60;22.80;;;2.30;99.90;;;;;;5033786;28;20036;-55
2021/12/07 01:29:06;;;;;;;56.13;23.73;;;2.20;99.90;;;;;;5033618;28;20029;-55
2021/12/07 01:59:50;;;;;;;53.10;22.45;;;2.40;99.90;;;;;;5033296;28;20022;-55
2021/12/07 02:02:17;;;;;;;58.10;23.52;;;2.50;99.90;;;;;;5033600;28;20459;-56
2021/12/07 02:04:44;;;;;;;55.17;22.08;;;2.50;99.90;;;;;;5032939;28;20069;-56
2021/12/07 02:07:11;;;;;;;55.00;22.88;;;2.50;99.90;;;;;;5033782;28;20498;-56
2021/12/07 02:09:40;;;;;;;55.72;23.02;;;2.50;99.90;;;;;;5031391;28;20120;-53
2021/12/07 02:12:07;;;;;;;57.90;24.10;;;2.50;99.90;;;;;;5033121;28;20064;-54
2021/12/07 02:14:33;;;;;;;51.67;21.92;;;2.60;99.90;;;;;;5033031;28;20430;-56
2021/12/07 02:17:12;;;;;;;55.72;23.25;;;2.60;99.90;;;;;;5033159;28;20017;-54
2021/12/07 02:19:39;;;;;;;54.88;22.23;;;2.60;99.90;;;;;;5032744;28;20029;-54
2021/12/07 02:22:06;;;;;;;50.53;22.02;;;2.60;99.90;;;;;;5032842;28;20018;-56
2021/12/07 02:24:33;;;;;;;55.15;23.13;;;2.70;99.90;;;;;;5031808;28;20075;-54
2021/12/07 02:26:59;;;;;;;60.53;23.00;;;2.70;99.90;;;;;;5032672;28;20101;-57
2021/12/07 02:29:25;;;;;;;55.25;22.48;;;2.70;99.90;;;;;;5032439;28;20496;-57
2021/12/07 02:31:54;;;;;;;51.72;22.00;;;2.70;99.90;;;;;;5031332;28;20021;-56
2021/12/07 02:34:21;;;;;;;54.80;22.60;;;2.70;99.90;;;;;;5032674;28;20029;-56
2021/12/07 02:36:47;;;;;;;51.65;21.27;;;2.70;99.90;;;;;;5033010;28;20437;-55
2021/12/07 02:39:13;;;;;;;51.88;23.20;;;2.70;99.90;;;;;;5032699;28;20105;-56
2021/12/07 02:41:40;;;;;;;46.95;21.48;;;2.70;99.90;;;;;;5032464;28;20030;-53
2021/12/07 02:44:07;;;;;;;49.33;21.45;;;2.70;99.90;;;;;;5032388;28;20033;-57
2021/12/07 02:46:37;;;;;;;56.20;22.33;;;2.70;99.90;;;;;;5032452;28;20159;-56
2021/12/07 02:49:07;;;;;;;55.00;22.07;;;2.70;99.90;;;;;;5032466;28;20029;-57
2021/12/07 02:51:34;;;;;;;47.85;20.42;;;2.70;99.90;;;;;;5032416;28;20033;-55
2021/12/07 02:54:00;;;;;;;49.67;20.63;;;2.70;99.90;;;;;;5032102;28;20423;-57
2021/12/07 02:56:26;;;;;;;45.47;19.70;;;2.80;99.90;;;;;;5032603;28;20026;-52
2021/12/07 02:58:57;;;;;;;46.13;21.52;;;2.70;99.90;;;;;;5032229;28;20036;-52
2021/12/07 03:01:27;;;;;;;45.53;19.75;;;2.80;99.90;;;;;;5032441;28;20106;-56
2021/12/07 03:04:01;;;;;;;48.90;20.73;;;2.80;99.90;;;;;;5032130;28;20041;-57
2021/12/07 03:06:44;;;;;;;50.70;21.38;;;2.80;99.90;;;;;;5030986;28;20115;-55
2021/12/07 03:10:04;;;;;;;48.38;20.60;;;2.80;99.90;;;;;;5032464;28;20037;-55
2021/12/07 03:26:23;;;;;;;51.22;21.35;;;2.90;99.90;;;;;;5032134;28;20036;-53
2021/12/07 03:28:45;;;;;;;47.72;20.77;;;2.80;99.90;;;;;;5030486;28;20089;-54
2021/12/07 03:31:12;;;;;;;50.75;20.95;;;2.80;99.90;;;;;;5031761;28;20079;-56
2021/12/07 03:33:38;;;;;;;55.22;21.40;;;2.80;99.90;;;;;;5031376;28;20449;-54
2021/12/07 03:36:06;;;;;;;55.42;23.17;;;2.80;99.90;;;;;;5033771;28;20052;-55
2021/12/07 03:38:32;;;;;;;48.50;21.30;;;2.80;99.90;;;;;;5035744;28;20093;-56
2021/12/07 03:40:57;;;;;;;48.72;21.45;;;2.80;99.90;;;;;;5035268;28;20548;-57
2021/12/07 03:43:23;;;;;;;51.42;21.33;;;2.80;99.90;;;;;;5035205;28;20037;-53
2021/12/07 03:45:49;;;;;;;47.47;20.55;;;2.70;99.90;;;;;;5034673;28;20055;-55
2021/12/07 03:48:15;;;;;;;48.90;21.50;;;2.80;99.90;;;;;;5035981;28;20075;-57
2021/12/07 03:50:41;;;;;;;49.28;20.83;;;2.70;99.90;;;;;;5035700;28;20053;-56
2021/12/07 03:53:07;;;;;;;45.15;20.30;;;2.70;99.90;;;;;;5035774;28;20448;-56
2021/12/07 03:55:33;;;;;;;50.30;22.48;;;2.70;99.90;;;;;;5035219;28;20096;-55
2021/12/07 03:57:59;;;;;;;45.78;20.73;;;2.70;99.90;;;;;;5035881;28;20029;-54
2021/12/07 04:00:30;;;;;;;51.97;21.00;;;2.70;99.90;;;;;;5035508;28;20029;-53
2021/12/07 04:02:56;;;;;;;45.67;20.48;;;2.60;99.90;;;;;;5035765;28;20175;-54
2021/12/07 04:05:23;;;;;;;50.53;20.88;;;2.60;99.90;;;;;;5035746;28;20075;-56
2021/12/07 04:07:50;;;;;;;49.72;20.95;;;2.60;99.90;;;;;;5035810;28;20029;-53
2021/12/07 04:10:18;;;;;;;51.42;21.75;;;2.60;99.90;;;;;;5035369;28;20095;-57
2021/12/07 04:12:44;;;;;;;48.63;20.33;;;2.60;99.90;;;;;;5035451;28;20399;-57
2021/12/07 04:15:13;;;;;;;55.17;22.48;;;2.50;99.90;;;;;;5035974;28;20021;-55
2021/12/07 04:17:39;;;;;;;52.47;21.83;;;2.50;99.90;;;;;;5035695;28;20060;-57
2021/12/07 04:20:07;;;;;;;49.58;21.40;;;2.50;99.90;;;;;;5035554;28;20094;-56
2021/12/07 04:22:33;;;;;;;52.20;21.17;;;2.50;99.90;;;;;;5036127;28;20048;-55
2021/12/07 04:24:59;;;;;;;56.33;23.25;;;2.50;99.90;;;;;;5036123;28;20029;-56
2021/12/07 04:27:24;;;;;;;50.33;22.00;;;2.50;99.90;;;;;;5035357;28;20439;-55
2021/12/07 04:29:50;;;;;;;47.72;20.75;;;2.50;99.90;;;;;;5035041;28;20393;-55
2021/12/07 04:32:15;;;;;;;53.05;22.73;;;2.50;99.90;;;;;;5034822;28;20029;-53
2021/12/07 04:34:41;;;;;;;50.92;21.90;;;2.50;99.90;;;;;;5027948;23;20050;-57
2021/12/07 04:37:06;;;;;;;46.72;20.98;;;2.50;99.90;;;;;;5015408;28;20105;-57
2021/12/07 04:39:32;;;;;;;54.00;21.35;;;2.50;99.90;;;;;;5015447;28;20030;-55
2021/12/07 04:41:58;;;;;;;59.13;21.33;;;2.40;99.90;;;;;;5015650;28;20030;-57
2021/12/07 04:44:24;;;;;;;55.40;22.10;;;2.40;99.90;;;;;;5015058;28;20030;-52
2021/12/07 05:00:25;;;;;;;50.40;22.10;;;2.50;99.90;;;;;;4993361;28;20255;-54
2021/12/07 05:03:04;;;;;;;55.15;21.90;;;2.50;99.90;;;;;;5010641;28;20100;-55
2021/12/07 05:05:35;;;;;;;50.08;21.75;;;2.50;99.90;;;;;;5014717;28;20479;-57
2021/12/07 05:08:04;;;;;;;53.15;23.00;;;2.50;99.90;;;;;;5015073;28;20036;-58
2021/12/07 05:10:32;;;;;;;47.15;20.38;;;2.40;99.90;;;;;;5014841;28;20061;-57
2021/12/07 05:13:22;;;;;;;54.80;22.20;;;2.50;99.90;;;;;;5014855;28;20113;-58
2021/12/07 05:34:36;;;;;;;51.70;21.45;;;2.50;99.90;;;;;;5015195;28;20118;-55
2021/12/07 05:34:47;;;;;;;50.33;23.15;;;2.60;99.90;;;;;;5014629;28;20041;-57
2021/12/07 05:39:59;;;;;;;58.30;23.40;;;2.60;99.90;;;;;;5014845;28;20072;-52
2021/12/07 05:42:25;;;;;;;52.15;22.20;;;2.70;99.90;;;;;;5014407;28;20049;-56
2021/12/07 05:44:53;;;;;;;55.97;23.95;;;2.60;99.90;;;;;;5012904;28;20388;-57
2021/12/07 05:47:18;;;;;;;52.53;23.80;;;2.60;99.90;;;;;;5012782;28;20040;-57
2021/12/07 05:49:44;;;;;;;57.03;23.67;;;2.60;99.90;;;;;;5015067;28;20034;-53
2021/12/07 05:52:09;;;;;;;56.47;23.85;;;2.60;99.90;;;;;;5014325;28;20447;-51
2021/12/07 05:54:36;;;;;;;60.40;24.25;;;2.60;99.90;;;;;;5014022;28;20101;-56
2021/12/07 05:57:01;;;;;;;55.10;24.15;;;2.50;99.90;;;;;;5014119;28;20113;-58
2021/12/07 05:59:27;;;;;;;59.70;24.38;;;2.50;99.90;;;;;;5013842;28;20113;-57
2021/12/07 06:01:53;;;;;;;59.00;24.55;;;2.50;99.90;;;;;;5017018;28;20041;-56
2021/12/07 06:04:18;;;;;;;57.95;24.98;;;2.60;99.90;;;;;;5019267;28;20026;-58
2021/12/07 06:06:44;;;;;;;59.08;24.33;;;2.60;99.90;;;;;;5031308;28;20506;-58
2021/12/07 06:09:10;;;;;;;65.90;25.17;;;2.60;99.90;;;;;;5033499;28;20167;-58
2021/12/07 06:11:35;;;;;;;60.50;23.85;;;2.60;99.90;;;;;;5033432;28;20033;-59
2021/12/07 06:14:01;;;;;;;65.93;25.33;;;2.60;99.90;;;;;;5033670;28;20028;-57
2021/12/07 06:16:30;;;;;;;59.22;23.85;;;2.50;99.90;;;;;;5031997;28;20032;-59
2021/12/07 06:18:56;;;;;;;59.70;26.60;;;2.70;99.90;;;;;;5033612;28;20052;-57
2021/12/07 06:21:22;;;;;;;55.08;23.40;;;2.60;99.90;;;;;;5033829;28;20386;-54
2021/12/07 06:23:48;;;;;;;62.35;26.65;;;2.70;99.90;;;;;;5033238;28;20101;-58
2021/12/07 06:26:13;;;;;;;59.53;25.13;;;2.60;99.90;;;;;;5031977;28;20474;-56
2021/12/07 06:28:39;;;;;;;60.15;25.48;;;2.60;99.90;;;;;;5033249;28;20025;-58
2021/12/07 06:31:05;;;;;;;62.85;23.60;;;2.70;99.90;;;;;;5033348;28;20029;-57
2021/12/07 06:33:31;;;;;;;52.92;24.75;;;2.70;99.90;;;;;;5033104;28;20025;-58
2021/12/07 06:36:00;;;;;;;69.30;26.25;;;2.70;99.90;;;;;;5032942;28;20021;-57
2021/12/07 06:38:27;;;;;;;56.38;24.75;;;2.70;99.90;;;;;;5033344;28;20025;-57
2021/12/07 06:40:53;;;;;;;61.53;25.65;;;2.70;99.90;;;;;;5033149;28;20026;-55
2021/12/07 06:43:18;;;;;;;60.63;24.92;;;2.70;99.90;;;;;;5033379;28;20072;-55
2021/12/07 06:45:45;;;;;;;62.88;27.38;;;2.70;99.90;;;;;;5033017;28;20466;-59
2021/12/07 06:48:10;;;;;;;55.90;25.15;;;2.70;99.90;;;;;;5032579;28;20428;-58
2021/12/07 06:50:36;;;;;;;65.38;26.02;;;2.70;99.90;;;;;;5020653;28;20116;-54
2021/12/07 06:53:02;;;;;;;56.13;25.08;;;2.70;99.90;;;;;;5015910;28;20109;-57
2021/12/07 06:55:28;;;;;;;65.20;25.88;;;2.80;99.90;;;;;;5019598;28;20179;-55
2021/12/07 06:57:54;;;;;;;60.45;24.95;;;2.70;99.90;;;;;;5019639;28;20518;-57
2021/12/07 07:00:20;;;;;;;59.03;24.88;;;2.70;99.90;;;;;;5009326;28;20061;-57
2021/12/07 07:02:46;;;;;;;60.13;26.42;;;2.70;99.90;;;;;;5010850;28;20057;-58
2021/12/07 07:05:12;;;;;;;58.25;25.80;;;2.70;99.90;;;;;;5012504;28;20026;-55
2021/12/07 07:07:39;;;;;;;60.50;25.55;;;2.70;99.90;;;;;;5010226;28;20429;-58
2021/12/07 07:10:07;;;;;;;60.45;25.27;;;2.70;99.90;;;;;;5012014;28;20022;-57
2021/12/07 07:12:32;;;;;;;62.00;25.98;;;2.70;99.90;;;;;;5016624;28;20022;-58
2021/12/07 07:14:58;;;;;;;192.52;82.32;;;2.80;99.90;;;;;;5016369;28;20493;-53
2021/12/07 07:17:24;;;;;;;94.07;39.85;;;2.80;99.90;;;;;;5016524;28;20029;-57
2021/12/07 07:19:50;;;;;;;69.65;28.60;;;2.70;99.90;;;;;;5016397;28;20395;-56
2021/12/07 07:22:15;;;;;;;58.33;25.52;;;2.70;99.90;;;;;;5016447;28;20069;-57
2021/12/07 07:24:43;;;;;;;60.53;26.83;;;2.80;99.90;;;;;;5015992;28;20026;-55
2021/12/07 07:27:09;;;;;;;65.05;25.58;;;2.80;99.90;;;;;;5016066;28;20050;-56
2021/12/07 07:29:35;;;;;;;58.30;26.23;;;2.80;99.90;;;;;;5016023;28;20076;-56
2021/12/07 07:32:01;;;;;;;64.00;27.85;;;2.80;99.90;;;;;;5014502;28;20054;-55
2021/12/07 07:34:26;;;;;;;81.82;33.33;;;2.80;99.90;;;;;;5016035;28;20173;-53
2021/12/07 07:36:52;;;;;;;75.68;30.95;;;2.80;99.90;;;;;;5016065;28;20044;-56
2021/12/07 07:39:18;;;;;;;67.05;28.55;;;2.70;99.90;;;;;;5016422;28;20083;-53
2021/12/07 07:41:44;;;;;;;61.78;25.25;;;2.80;99.90;;;;;;5016608;28;20395;-57
2021/12/07 07:44:09;;;;;;;60.55;25.85;;;2.80;99.90;;;;;;5016302;28;20029;-58
2021/12/07 07:46:35;;;;;;;63.40;25.13;;;2.70;99.90;;;;;;5016345;28;20108;-58
2021/12/07 07:49:01;;;;;;;70.80;26.85;;;2.70;99.90;;;;;;5016608;28;20030;-56
2021/12/07 07:51:27;;;;;;;70.88;26.50;;;2.70;99.90;;;;;;5016246;28;20121;-58
2021/12/07 07:53:54;;;;;;;60.65;25.83;;;2.70;99.90;;;;;;5015907;28;20111;-56
2021/12/07 07:56:20;;;;;;;62.33;25.30;;;2.70;99.90;;;;;;5016739;28;20022;-58
2021/12/07 07:58:46;;;;;;;63.33;26.27;;;2.70;99.90;;;;;;5016029;28;20116;-56
2021/12/07 08:01:12;;;;;;;60.03;25.73;;;2.70;99.90;;;;;;5015962;28;20498;-58
2021/12/07 08:03:37;;;;;;;60.88;26.55;;;2.70;99.90;;;;;;5015638;28;20030;-56
2021/12/07 08:06:03;;;;;;;63.60;26.50;;;2.70;99.90;;;;;;5015896;28;20529;-58
2021/12/07 08:08:28;;;;;;;67.15;25.65;;;2.80;99.90;;;;;;5015846;28;20076;-58
2021/12/07 08:10:54;;;;;;;61.10;24.50;;;2.80;99.90;;;;;;5016200;28;20080;-56
2021/12/07 08:13:20;;;;;;;65.72;26.45;;;2.80;99.90;;;;;;5016158;28;20463;-55
2021/12/07 08:15:47;;;;;;;63.30;26.05;;;2.80;99.90;;;;;;5016004;28;20463;-58
2021/12/07 08:18:13;;;;;;;57.92;24.60;;;2.90;99.90;;;;;;5016134;28;20030;-56
2021/12/07 08:20:40;;;;;;;60.58;24.48;;;2.90;99.90;;;;;;5015788;28;20061;-53
2021/12/07 08:23:06;;;;;;;57.90;24.52;;;2.90;99.90;;;;;;5014048;28;20022;-57
2021/12/07 08:25:38;;;;;;;51.50;23.55;;;2.90;99.90;;;;;;5016267;28;20399;-54
2021/12/07 08:28:07;;;;;;;57.75;23.55;;;2.90;99.90;;;;;;5017020;28;20107;-58
2021/12/07 08:30:33;;;;;;;58.00;24.75;;;2.90;99.90;;;;;;5015169;28;20109;-55
2021/12/07 08:32:59;;;;;;;59.28;23.85;;;2.90;99.90;;;;;;5015365;28;20475;-53
2021/12/07 08:35:25;;;;;;;53.38;23.77;;;2.90;99.90;;;;;;5015555;28;20036;-57
2021/12/07 08:37:51;;;;;;;57.70;24.45;;;2.90;99.90;;;;;;5015358;28;20348;-52
2021/12/07 08:40:21;;;;;;;57.85;25.48;;;2.90;99.90;;;;;;5014943;28;20479;-55
2021/12/07 08:42:48;;;;;;;50.70;24.07;;;3.00;99.90;;;;;;5014964;28;20049;-54
2021/12/07 08:45:14;;;;;;;57.20;25.23;;;3.00;99.90;;;;;;5014807;28;20068;-55
2021/12/07 08:47:40;;;;;;;53.00;22.58;;;3.00;99.90;;;;;;5014631;28;20057;-56
2021/12/07 08:50:09;;;;;;;57.20;23.80;;;3.10;99.90;;;;;;5014179;28;20094;-57
2021/12/07 08:52:35;;;;;;;50.83;22.92;;;3.20;99.90;;;;;;5014271;28;20020;-53
2021/12/07 09:00:16;;;;;;;47.03;20.58;;;3.20;99.90;;;;;;5014217;28;19959;-53
2021/12/07 09:02:42;;;;;;;46.13;20.77;;;3.30;99.90;;;;;;5013538;28;20471;-53
2021/12/07 09:05:09;;;;;;;49.40;21.95;;;3.30;99.90;;;;;;5013490;28;20034;-54
2021/12/07 09:07:35;;;;;;;46.03;21.90;;;3.30;99.90;;;;;;5013372;28;20055;-56
2021/12/07 09:10:02;;;;;;;45.92;21.73;;;3.30;99.90;;;;;;5013710;28;20113;-55
2021/12/07 09:12:29;;;;;;;43.25;21.98;;;3.30;99.90;;;;;;5013785;28;20038;-54
2021/12/07 09:14:55;;;;;;;46.42;21.27;;;3.30;99.90;;;;;;5013308;28;20487;-54
2021/12/07 09:17:21;;;;;;;47.58;22.88;;;3.40;99.90;;;;;;5013348;28;20041;-53
2021/12/07 09:19:47;;;;;;;47.17;22.42;;;3.40;99.90;;;;;;5012360;28;20497;-53
2021/12/07 09:22:12;;;;;;;45.60;23.23;;;3.40;99.90;;;;;;5013190;28;20100;-56
2021/12/07 09:24:38;;;;;;;46.35;21.05;;;3.50;99.90;;;;;;5014020;28;20026;-54
2021/12/07 09:27:04;;;;;;;45.83;22.98;;;3.40;99.90;;;;;;5013838;28;20029;-51
2021/12/07 09:29:30;;;;;;;45.00;22.35;;;3.50;99.90;;;;;;5014474;28;20018;-55
2021/12/07 09:31:55;;;;;;;45.13;21.92;;;3.50;99.90;;;;;;5013806;28;20029;-58
2021/12/07 09:34:21;;;;;;;46.55;21.52;;;3.60;99.90;;;;;;5013413;28;20041;-54
2021/12/07 09:36:47;;;;;;;46.72;23.10;;;3.60;99.90;;;;;;5013922;28;20030;-56
2021/12/07 09:39:16;;;;;;;45.03;22.33;;;3.70;99.90;;;;;;5013719;28;20120;-52
2021/12/07 09:41:43;;;;;;;43.15;21.15;;;3.70;99.90;;;;;;5013864;28;20129;-54
2021/12/07 09:44:09;;;;;;;47.05;21.85;;;3.70;99.90;;;;;;5013605;28;20026;-55
2021/12/07 09:46:36;;;;;;;43.75;22.17;;;3.80;99.90;;;;;;5013254;28;20030;-52
2021/12/07 09:49:03;;;;;;;46.53;22.00;;;3.80;99.90;;;;;;5013517;28;20052;-52
2021/12/07 09:51:29;;;;;;;45.97;22.00;;;3.80;99.90;;;;;;5012950;28;20034;-56
2021/12/07 09:53:58;;;;;;;40.40;21.13;;;3.80;99.90;;;;;;5013271;28;20475;-55
2021/12/07 09:56:27;;;;;;;44.83;21.08;;;3.90;99.90;;;;;;5014093;28;20022;-51
2021/12/07 09:58:54;;;;;;;44.28;22.20;;;3.80;99.90;;;;;;5012745;28;20046;-51
2021/12/07 10:01:23;;;;;;;46.92;22.23;;;3.80;99.90;;;;;;5013072;28;20525;-57
2021/12/07 10:03:49;;;;;;;43.42;22.67;;;3.90;99.90;;;;;;5012891;28;20524;-57
2021/12/07 10:06:15;;;;;;;46.22;21.55;;;3.90;99.90;;;;;;5013038;28;20030;-56
2021/12/07 10:08:42;;;;;;;47.10;22.50;;;4.00;99.90;;;;;;5013530;28;20076;-53
2021/12/07 10:11:11;;;;;;;43.45;20.83;;;4.00;99.90;;;;;;5012523;28;20029;-55
2021/12/07 10:13:42;;;;;;;41.35;20.70;;;4.10;99.90;;;;;;5012524;28;20033;-56
2021/12/07 10:16:12;;;;;;;44.70;22.17;;;4.10;99.90;;;;;;5012651;28;20065;-55
2021/12/07 10:18:40;;;;;;;44.92;21.20;;;4.10;99.90;;;;;;5012710;28;20025;-50
2021/12/07 10:21:10;;;;;;;40.58;20.92;;;4.10;99.90;;;;;;5011198;28;20026;-54
2021/12/07 10:23:39;;;;;;;45.05;21.25;;;4.20;99.90;;;;;;5012265;28;20108;-54
2021/12/07 10:26:10;;;;;;;47.03;20.77;;;4.30;99.90;;;;;;5012177;28;20080;-53
2021/12/07 10:28:52;;;;;;;41.25;20.85;;;4.30;99.90;;;;;;5012638;28;20445;-55
2021/12/07 10:31:23;;;;;;;40.90;20.42;;;4.30;99.90;;;;;;5012238;28;20029;-56
2021/12/07 10:33:57;;;;;;;42.47;20.92;;;4.20;99.90;;;;;;5025681;23;20072;-53
2021/12/07 10:36:35;;;;;;;45.38;21.70;;;4.20;99.90;;;;;;5012934;28;20025;-52
2021/12/07 10:39:09;;;;;;;45.70;21.38;;;4.20;99.90;;;;;;5012416;28;20040;-54
2021/12/07 10:41:39;;;;;;;39.38;21.00;;;4.30;99.90;;;;;;5012736;28;20022;-52
2021/12/07 10:44:09;;;;;;;42.38;21.10;;;4.30;99.90;;;;;;5012897;28;20034;-53
2021/12/07 10:46:34;;;;;;;41.45;20.85;;;4.30;99.90;;;;;;5011904;28;20018;-52
2021/12/07 10:49:25;;;;;;;35.08;19.30;;;4.40;99.90;;;;;;5013153;28;20025;-54
2021/12/07 10:52:07;;;;;;;46.75;21.58;;;4.40;99.90;;;;;;5012557;28;20065;-52
2021/12/07 10:54:56;;;;;;;40.80;20.02;;;4.50;99.90;;;;;;5012834;28;20340;-55
2021/12/07 10:57:26;;;;;;;39.22;20.40;;;4.50;99.90;;;;;;5005390;28;20120;-54
2021/12/07 11:00:15;;;;;;;48.35;21.58;;;4.60;99.90;;;;;;5012484;28;20038;-52
2021/12/07 11:02:44;;;;;;;44.85;19.58;;;4.70;99.90;;;;;;5012270;28;20026;-55
2021/12/07 11:05:14;;;;;;;49.65;21.25;;;4.80;99.90;;;;;;5012414;28;20044;-55
2021/12/07 11:07:39;;;;;;;41.88;20.08;;;4.90;99.90;;;;;;5011790;28;20022;-53
2021/12/07 11:10:10;;;;;;;38.70;17.55;;;4.80;99.90;;;;;;5012026;28;20480;-57
2021/12/07 11:12:47;;;;;;;43.75;20.73;;;4.90;99.90;;;;;;5012518;28;20018;-55
2021/12/07 11:15:18;;;;;;;39.60;20.13;;;4.90;99.90;;;;;;5012354;28;20037;-54
2021/12/07 11:17:44;;;;;;;40.10;18.98;;;5.00;99.90;;;;;;5012380;28;20025;-51
2021/12/07 11:20:12;;;;;;;41.20;19.40;;;5.10;99.90;;;;;;5012957;28;20034;-53
2021/12/07 11:22:43;;;;;;;33.17;17.65;;;5.10;99.90;;;;;;5012905;28;20385;-51
2021/12/07 11:25:10;;;;;;;34.35;17.08;;;5.10;99.90;;;;;;5012159;28;20487;-52
2021/12/07 11:30:27;;;;;;;35.90;16.73;;;5.00;99.90;;;;;;5012361;28;20037;-53
2021/12/07 11:32:59;;;;;;;39.03;16.45;;;5.00;99.90;;;;;;5012462;28;20386;-53
2021/12/07 11:35:30;;;;;;;37.17;16.05;;;4.90;99.90;;;;;;5012065;28;20030;-52
2021/12/07 11:37:58;;;;;;;36.30;16.77;;;4.90;99.90;;;;;;5012915;28;20028;-54
2021/12/07 11:40:29;;;;;;;40.72;18.13;;;4.90;99.90;;;;;;5012219;28;20474;-55
2021/12/07 11:42:55;;;;;;;37.58;17.90;;;4.80;99.90;;;;;;5012283;28;20041;-56
2021/12/07 11:45:29;;;;;;;40.13;17.38;;;4.80;99.90;;;;;;5012219;28;20041;-53
2021/12/07 11:48:03;;;;;;;41.30;17.83;;;4.90;99.90;;;;;;5010612;28;20066;-56
2021/12/07 11:50:46;;;;;;;35.80;16.52;;;4.90;99.90;;;;;;5012309;28;20119;-54
2021/12/07 11:53:18;;;;;;;37.70;17.17;;;4.90;99.90;;;;;;5012284;28;20382;-55
2021/12/07 11:55:47;;;;;;;46.00;19.08;;;4.90;99.90;;;;;;5012380;28;20434;-53
2021/12/07 11:58:13;;;;;;;41.22;18.90;;;4.90;99.90;;;;;;5015863;28;20074;-50
2021/12/07 12:00:47;;;;;;;37.05;17.73;;;4.90;99.90;;;;;;5015503;28;20026;-56
2021/12/07 12:03:15;;;;;;;40.28;17.95;;;4.90;99.90;;;;;;5015606;28;20030;-55
2021/12/07 12:05:43;;;;;;;35.40;16.58;;;4.90;99.90;;;;;;5015461;28;20261;-55
2021/12/07 12:08:10;;;;;;;41.67;17.42;;;4.90;99.90;;;;;;5015222;28;20105;-55
2021/12/07 12:10:42;;;;;;;40.30;17.73;;;4.90;99.90;;;;;;5015707;28;20104;-54
2021/12/07 12:13:43;;;;;;;41.97;17.23;;;4.90;99.90;;;;;;5015461;28;20044;-52
2021/12/07 12:16:41;;;;;;;35.90;17.27;;;4.90;99.90;;;;;;5015424;28;20084;-51
2021/12/07 12:19:20;;;;;;;42.05;16.00;;;4.90;99.90;;;;;;5015872;28;20037;-56
2021/12/07 12:21:53;;;;;;;34.67;17.08;;;4.80;99.90;;;;;;5015579;28;20030;-54
2021/12/07 12:24:35;;;;;;;42.83;18.52;;;4.80;99.90;;;;;;5015357;28;20030;-52
2021/12/07 12:27:10;;;;;;;46.50;18.45;;;4.90;99.90;;;;;;5016059;28;20041;-51
2021/12/07 12:29:39;;;;;;;38.67;16.35;;;4.90;99.90;;;;;;5014267;28;20029;-57
2021/12/07 12:32:07;;;;;;;34.47;16.00;;;4.90;99.90;;;;;;5015474;28;20372;-51
2021/12/07 12:34:36;;;;;;;45.63;18.20;;;5.00;99.90;;;;;;5015169;28;20092;-54
2021/12/07 12:37:06;;;;;;;39.92;18.23;;;5.00;99.90;;;;;;5015072;28;20022;-55
2021/12/07 12:39:53;;;;;;;38.28;17.40;;;5.00;99.90;;;;;;5015407;28;20459;-54
2021/12/07 12:42:37;;;;;;;43.83;16.65;;;5.00;99.90;;;;;;5015287;28;20025;-55
2021/12/07 12:45:02;;;;;;;59.95;22.73;;;5.10;99.90;;;;;;5014872;28;20037;-52
2021/12/07 12:47:30;;;;;;;56.40;23.42;;;5.10;99.90;;;;;;5015432;28;20026;-54
2021/12/07 12:50:08;;;;;;;49.72;20.67;;;5.10;99.90;;;;;;5016525;28;20096;-52
2021/12/07 12:52:52;;;;;;;40.45;16.92;;;5.10;99.90;;;;;;5016233;28;20022;-53
2021/12/07 12:55:31;;;;;;;45.38;18.23;;;5.10;99.90;;;;;;5015650;28;20018;-51
2021/12/07 12:57:57;;;;;;;36.47;17.83;;;5.10;99.90;;;;;;5015628;28;20069;-49
2021/12/07 13:00:23;;;;;;;44.35;17.88;;;5.20;99.90;;;;;;5014848;28;20033;-51
2021/12/07 13:02:52;;;;;;;36.83;17.20;;;5.30;99.90;;;;;;5015679;28;20025;-53
2021/12/07 13:05:33;;;;;;;38.60;17.10;;;5.20;99.90;;;;;;5014735;28;20036;-54
2021/12/07 13:08:25;;;;;;;43.28;18.67;;;5.30;99.90;;;;;;5014258;28;20034;-54
2021/12/07 13:11:00;;;;;;;44.17;18.40;;;5.30;99.90;;;;;;5011458;28;20034;-53
2021/12/07 13:13:36;;;;;;;43.47;17.15;;;5.40;99.90;;;;;;5015059;28;20347;-53
2021/12/07 13:16:16;;;;;;;45.88;18.48;;;5.40;99.90;;;;;;5014750;28;20525;-51
2021/12/07 13:18:43;;;;;;;52.47;19.95;;;5.40;99.90;;;;;;5013244;28;20515;-52
2021/12/07 13:21:25;;;;;;;34.78;18.25;;;5.40;99.90;;;;;;5013497;28;20540;-51
2021/12/07 13:24:14;;;;;;;35.40;17.65;;;5.50;99.90;;;;;;5013693;28;20076;-51
2021/12/07 13:26:42;;;;;;;42.72;19.15;;;5.50;99.90;;;;;;5014022;28;20040;-54
2021/12/07 13:29:15;;;;;;;39.63;18.98;;;5.60;99.90;;;;;;5012415;28;20029;-52
2021/12/07 13:31:46;;;;;;;46.55;19.10;;;5.60;99.90;;;;;;5013291;28;20403;-54
2021/12/07 13:34:12;;;;;;;;;;;5.60;99.90;;;;;;5013795;28;20030;-51
2021/12/07 13:36:45;;;;;;;39.58;17.40;;;5.70;99.90;;;;;;5013457;28;19913;-52
2021/12/07 13:39:13;;;;;;;39.78;18.25;;;5.60;99.90;;;;;;5012455;28;20026;-53
2021/12/07 13:42:20;;;;;;;42.75;19.48;;;5.60;99.90;;;;;;5013512;28;20030;-52
2021/12/07 13:44:52;;;;;;;34.78;18.85;;;5.60;99.90;;;;;;5010934;28;20033;-53
2021/12/07 13:47:28;;;;;;;44.17;19.55;;;5.50;99.90;;;;;;5013377;28;20026;-52
2021/12/07 13:50:26;;;;;;;36.85;18.10;;;5.60;99.90;;;;;;5013302;28;20061;-54
2021/12/07 13:52:54;;;;;;;36.45;18.77;;;5.70;99.90;;;;;;5008720;28;20077;-54
2021/12/07 13:55:29;;;;;;;35.80;18.95;;;5.70;99.90;;;;;;5012813;28;20057;-53
2021/12/07 13:57:58;;;;;;;46.97;20.42;;;5.70;99.90;;;;;;5013230;28;20477;-55
2021/12/07 14:00:26;;;;;;;39.78;19.10;;;5.70;99.90;;;;;;5013118;28;20030;-54
2021/12/07 14:02:56;;;;;;;36.97;17.95;;;5.70;99.90;;;;;;5012940;28;20029;-53
2021/12/07 14:05:29;;;;;;;40.30;18.45;;;5.70;99.90;;;;;;5012662;28;20494;-52
2021/12/07 14:07:57;;;;;;;38.92;17.92;;;5.70;99.90;;;;;;5012843;28;20033;-51
2021/12/07 14:10:50;;;;;;;33.95;17.50;;;5.70;99.90;;;;;;5013266;28;20030;-52
2021/12/07 14:13:17;;;;;;;41.47;17.60;;;5.80;99.90;;;;;;5011577;28;20038;-53
2021/12/07 14:15:46;;;;;;;40.95;17.50;;;5.70;99.90;;;;;;5012808;28;20018;-54
2021/12/07 14:18:18;;;;;;;40.13;18.23;;;5.70;99.90;;;;;;5012601;28;20022;-56
2021/12/07 14:20:57;;;;;;;40.55;17.63;;;5.70;99.90;;;;;;5012492;28;20042;-51
2021/12/07 14:23:35;;;;;;;41.75;18.48;;;5.70;99.90;;;;;;5013208;28;20103;-52
2021/12/07 14:26:18;;;;;;;40.20;19.52;;;5.70;99.90;;;;;;5013867;28;20654;-53
2021/12/07 14:28:44;;;;;;;43.45;18.98;;;5.60;99.90;;;;;;5014143;28;20114;-53
2021/12/07 14:31:16;;;;;;;39.63;17.63;;;5.60;99.90;;;;;;5014137;28;20109;-56
2021/12/07 14:33:55;;;;;;;40.80;17.60;;;5.70;99.90;;;;;;5014003;28;20454;-51